.
WxDataArchive / Data Records for 2011-08-05
2011-08-04 August 2011 2011-08-06

Data Records for Friday, 05 August 2011

Time	Temp	Chill	HIndex	Humid	Dewpt	 Wind 	HiWind	WindDir	Rain 	Barom 
-----	----	-----	------	-----	-----	------	------	-------	-----	----- 
00:00	71.8	71.8	71.8	86	67.4	0	0	---	0.00	29.962 
00:05	71.6	71.6	71.6	87	67.5	0	0	---	0.00	29.962 
00:10	71.5	71.5	71.5	87	67.4	0	0	---	0.00	29.962 
00:15	71.3	71.3	71.3	87	67.2	0	0	---	0.00	29.964 
00:20	71.1	71.1	71.1	88	67.4	0	0	---	0.00	29.964 
00:25	70.9	70.9	70.9	88	67.2	0	0	---	0.00	29.964 
00:30	70.8	70.8	70.8	88	67.1	0	0	---	0.00	29.969 
00:35	70.6	70.6	70.6	89	67.2	0	0	---	0.00	29.969 
00:40	70.4	70.4	70.4	89	67.0	0	0	---	0.00	29.969 
00:45	70.3	70.3	70.3	89	66.9	0	0	---	0.00	29.972 
00:50	70.1	70.1	70.1	90	67.0	0	0	---	0.00	29.972 
00:55	69.9	69.9	69.9	90	66.8	0	0	---	0.00	29.972 
01:00	69.9	69.9	69.9	90	66.8	0	0	---	0.00	29.979 
01:05	69.9	69.9	69.9	91	67.1	0	0	---	0.00	29.979 
01:10	69.8	69.8	69.8	91	67.0	0	0	---	0.00	29.979 
01:15	69.8	69.8	69.8	91	67.0	0	0	---	0.00	29.969 
01:20	69.8	69.8	69.8	91	67.0	0	0	---	0.00	29.969 
01:25	69.6	69.6	69.6	91	66.8	0	0	---	0.00	29.969 
01:30	69.6	69.6	69.6	92	67.2	0	0	---	0.00	29.969 
01:35	69.6	69.6	69.6	92	67.2	0	0	---	0.00	29.969 
01:40	69.4	69.4	69.4	92	67.0	0	0	---	0.00	29.969 
01:45	69.4	69.4	69.4	92	67.0	0	0	---	0.00	29.968 
01:50	69.6	69.6	69.6	92	67.2	0	1	90	0.00	29.968 
01:55	69.6	69.6	69.6	92	67.2	0	0	---	0.00	29.968 
02:00	69.6	69.6	69.6	93	67.5	0	1	90	0.00	29.967 
02:05	69.8	69.8	69.8	93	67.7	0	1	90	0.00	29.967 
02:10	69.8	69.8	69.8	93	67.7	0	1	90	0.00	29.967 
02:15	69.6	69.6	69.6	93	67.5	0	0	---	0.00	29.959 
02:20	69.6	69.6	69.6	93	67.5	0	0	---	0.00	29.959 
02:25	69.4	69.4	69.4	93	67.3	0	0	---	0.00	29.959 
02:30	69.4	69.4	69.4	93	67.3	0	0	---	0.00	29.960 
02:35	69.3	69.3	69.3	93	67.2	0	0	---	0.00	29.960 
02:40	69.3	69.3	69.3	93	67.2	0	0	---	0.00	29.960 
02:45	69.1	69.1	69.1	93	67.0	0	0	---	0.00	29.956 
02:50	69.1	69.1	69.1	93	67.0	0	0	---	0.00	29.956 
02:55	69.1	69.1	69.1	93	67.0	0	0	---	0.00	29.956 
03:00	69.1	69.1	69.1	93	67.0	0	0	---	0.00	29.950 
03:05	68.9	68.9	68.9	93	66.8	0	0	---	0.00	29.950 
03:10	68.9	68.9	68.9	93	66.8	0	0	---	0.00	29.950 
03:15	68.9	68.9	68.9	93	66.8	0	0	---	0.00	29.952 
03:20	68.9	68.9	68.9	93	66.8	0	0	---	0.00	29.952 
03:25	68.8	68.8	68.8	93	66.7	0	0	---	0.00	29.952 
03:30	68.8	68.8	68.8	94	67.0	0	0	---	0.00	29.954 
03:35	68.8	68.8	68.8	94	67.0	0	0	---	0.00	29.954 
03:40	68.8	68.8	68.8	94	67.0	0	0	---	0.00	29.954 
03:45	68.8	68.8	68.8	94	67.0	0	0	---	0.00	29.949 
03:50	68.8	68.8	68.8	94	67.0	0	1	90	0.00	29.949 
03:55	68.8	68.8	68.8	94	67.0	0	0	---	0.00	29.949 
04:00	68.8	68.8	68.8	94	67.0	0	1	90	0.00	29.946 
04:05	68.6	68.6	68.6	94	66.8	0	0	---	0.00	29.946 
04:10	68.6	68.6	68.6	94	66.8	0	1	90	0.00	29.946 
04:15	68.6	68.6	68.6	94	66.8	0	0	---	0.00	29.946 
04:20	68.4	68.4	68.4	94	66.6	0	0	---	0.00	29.946 
04:25	68.4	68.4	68.4	94	66.6	0	0	---	0.00	29.946 
04:30	68.4	68.4	68.4	94	66.6	0	2	90	0.00	29.945 
04:35	68.6	68.6	68.6	95	67.1	1	3	90	0.00	29.945 
04:40	68.6	68.6	68.6	95	67.1	0	0	---	0.00	29.945 
04:45	68.6	68.6	68.6	95	67.1	0	2	90	0.00	29.936 
04:50	68.4	68.4	68.4	95	66.9	0	2	90	0.00	29.936 
04:55	68.4	68.4	68.4	95	66.9	0	2	90	0.00	29.936 
05:00	68.3	68.3	68.3	95	66.8	0	0	---	0.00	29.941 
05:05	68.3	68.3	68.3	95	66.8	0	1	90	0.00	29.941 
05:10	68.1	68.1	68.1	95	66.6	0	0	---	0.00	29.941 
05:15	67.9	67.9	67.9	95	66.4	0	0	---	0.00	29.947 
05:20	67.9	67.9	67.9	95	66.4	0	0	---	0.00	29.947 
05:25	67.8	67.8	67.8	95	66.3	0	0	---	0.00	29.947 
05:30	67.8	67.8	67.8	95	66.3	0	0	---	0.00	29.952 
05:35	67.9	67.9	67.9	95	66.4	0	0	---	0.00	29.952 
05:40	67.9	67.9	67.9	95	66.4	0	0	---	0.00	29.952 
05:45	67.9	67.9	67.9	95	66.4	0	0	---	0.00	29.956 
05:50	67.9	67.9	67.9	95	66.4	0	0	---	0.00	29.956 
05:55	67.9	67.9	67.9	95	66.4	0	0	---	0.00	29.956 
06:00	67.9	67.9	67.9	95	66.4	0	0	---	0.00	29.959 
06:05	67.8	67.8	67.8	95	66.3	0	0	---	0.00	29.959 
06:10	67.9	67.9	67.9	95	66.4	0	2	90	0.00	29.959 
06:15	67.9	67.9	67.9	95	66.4	0	1	90	0.00	29.961 
06:20	67.8	67.8	67.8	95	66.3	0	1	90	0.00	29.961 
06:25	67.8	67.8	67.8	95	66.3	0	0	---	0.00	29.961 
06:30	67.6	67.6	67.6	95	66.1	0	1	90	0.00	29.964 
06:35	67.6	67.6	67.6	95	66.1	0	1	90	0.00	29.964 
06:40	67.6	67.6	67.6	95	66.1	0	1	90	0.00	29.964 
06:45	67.6	67.6	67.6	95	66.1	0	1	90	0.00	29.965 
06:50	67.6	67.6	67.6	95	66.1	0	1	90	0.00	29.965 
06:55	67.6	67.6	67.6	95	66.1	0	1	90	0.00	29.965 
07:00	67.6	67.6	67.6	95	66.1	0	0	---	0.00	29.972 
07:05	67.6	67.6	67.6	95	66.1	0	1	90	0.00	29.972 
07:10	67.6	67.6	67.6	96	66.4	0	2	90	0.00	29.972 
07:15	67.8	67.8	67.8	96	66.6	1	4	90	0.00	29.973 
07:20	67.8	67.8	67.8	96	66.6	0	2	90	0.00	29.973 
07:25	67.9	67.9	67.9	96	66.7	0	3	90	0.00	29.973 
07:30	67.9	67.9	67.9	96	66.7	1	3	90	0.00	29.974 
07:35	68.1	68.1	68.1	96	66.9	1	3	90	0.00	29.974 
07:40	68.3	68.3	68.3	96	67.1	1	3	90	0.00	29.974 
07:45	68.3	68.3	68.3	96	67.1	1	4	90	0.00	29.971 
07:50	68.4	68.4	68.4	95	66.9	1	3	90	0.00	29.971 
07:55	68.6	68.6	68.6	95	67.1	1	4	90	0.00	29.971 
08:00	68.8	68.8	68.8	95	67.3	1	3	90	0.00	29.974 
08:05	69.1	69.1	69.1	95	67.6	0	2	90	0.00	29.974 
08:10	69.3	69.3	69.3	94	67.5	2	4	90	0.00	29.974 
08:15	69.4	69.4	69.4	94	67.6	1	5	90	0.00	29.979 
08:20	69.4	69.4	69.4	93	67.3	2	5	90	0.00	29.979 
08:25	69.8	69.8	69.8	93	67.7	1	4	45	0.00	29.979 
08:30	70.3	70.3	70.3	92	67.9	1	3	68	0.00	29.979 
08:35	70.6	70.6	70.6	91	67.8	1	2	68	0.00	29.979 
08:40	70.8	70.8	70.8	91	68.0	1	4	68	0.00	29.979 
08:45	70.9	70.9	70.9	90	67.8	2	4	68	0.00	29.972 
08:50	71.3	71.3	71.3	90	68.2	1	3	90	0.00	29.972 
08:55	71.8	71.8	71.8	89	68.4	2	4	90	0.00	29.972 
09:00	72.1	72.1	72.1	88	68.3	1	4	90	0.00	29.970 
09:05	72.8	72.8	72.8	88	69.0	1	3	45	0.00	29.970 
09:10	73.2	73.2	73.2	86	68.7	1	4	45	0.00	29.970 
09:15	73.7	73.7	73.7	85	68.9	1	4	68	0.00	29.972 
09:20	74.0	74.0	74.0	84	68.8	2	4	68	0.00	29.972 
09:25	74.2	74.2	74.2	84	69.0	1	3	90	0.00	29.972 
09:30	74.9	74.9	74.9	83	69.4	1	2	90	0.00	29.969 
09:35	75.4	75.4	75.9	82	69.5	1	4	90	0.00	29.969 
09:40	75.8	75.8	76.6	81	69.5	1	4	90	0.00	29.969 
09:45	76.1	76.1	77.2	79	69.1	1	4	90	0.00	29.968 
09:50	76.3	76.3	77.6	78	68.9	2	4	90	0.00	29.968 
09:55	76.5	76.5	77.8	79	69.5	2	5	68	0.00	29.968 
10:00	77.0	77.0	78.7	77	69.2	2	5	68	0.00	29.969 
10:05	77.2	77.2	79.0	77	69.4	1	4	90	0.00	29.969 
10:10	77.6	77.6	79.6	75	69.0	2	5	90	0.00	29.969 
10:15	77.9	77.9	80.0	74	68.9	1	4	90	0.00	29.971 
10:20	78.5	78.5	80.9	73	69.1	1	4	90	0.00	29.971 
10:25	79.0	79.0	81.6	72	69.2	1	4	90	0.00	29.971 
10:30	79.4	79.4	82.1	71	69.2	1	4	90	0.00	29.973 
10:35	79.6	79.6	82.5	72	69.8	1	3	90	0.00	29.973 
10:40	79.8	79.8	82.9	72	69.9	2	4	90	0.00	29.973 
10:45	79.9	79.9	82.9	71	69.6	1	4	90	0.00	29.975 
10:50	80.3	80.3	83.3	69	69.2	1	4	90	0.00	29.975 
10:55	80.7	80.7	84.0	69	69.6	2	5	90	0.00	29.975 
11:00	81.1	81.1	84.5	68	69.5	1	5	68	0.00	29.972 
11:05	81.2	81.2	84.6	68	69.6	1	4	68	0.00	29.972 
11:10	81.6	81.6	85.1	67	69.6	1	4	68	0.00	29.972 
11:15	81.6	81.6	85.1	67	69.6	1	4	68	0.00	29.971 
11:20	81.6	81.6	85.1	67	69.6	1	4	68	0.00	29.971 
11:25	81.6	81.6	85.1	67	69.6	0	2	68	0.00	29.971 
11:30	81.8	81.8	85.5	67	69.7	2	5	90	0.00	29.971 
11:35	82.0	82.0	85.4	65	69.0	2	4	90	0.00	29.971 
11:40	82.4	82.4	85.4	62	68.0	1	4	90	0.00	29.971 
11:45	83.0	83.0	86.4	62	68.6	2	5	90	0.00	29.967 
11:50	83.6	83.6	86.6	59	67.7	2	5	90	0.00	29.967 
11:55	83.2	83.2	86.5	61	68.3	3	7	90	0.00	29.967 
12:00	83.0	83.0	86.4	62	68.6	3	5	112	0.00	29.967 
12:05	83.4	83.4	87.0	62	69.0	2	4	112	0.00	29.967 
12:10	83.8	83.8	87.2	60	68.4	1	4	112	0.00	29.967 
12:15	84.0	84.0	87.3	59	68.1	2	5	112	0.00	29.966 
12:20	83.8	83.8	86.9	59	67.9	2	5	112	0.00	29.966 
12:25	84.0	84.0	87.3	59	68.1	2	6	90	0.00	29.966 
12:30	84.3	84.3	87.2	57	67.4	2	5	112	0.00	29.963 
12:35	84.3	84.3	87.0	56	66.9	2	5	112	0.00	29.963 
12:40	84.1	84.1	86.7	56	66.7	1	4	90	0.00	29.963 
12:45	84.3	84.3	87.2	57	67.4	3	9	90	0.00	29.960 
12:50	84.7	84.7	87.6	56	67.2	2	5	90	0.00	29.960 
12:55	85.7	85.7	89.2	56	68.2	2	4	90	0.00	29.960 
13:00	86.1	86.1	89.9	56	68.5	2	6	90	0.00	29.950 
13:05	85.7	85.7	88.6	54	67.1	3	6	112	0.00	29.950 
13:10	85.7	85.7	88.3	53	66.6	2	5	68	0.00	29.950 
13:15	85.7	85.7	88.0	52	66.0	2	5	90	0.00	29.942 
13:20	85.3	85.3	88.5	56	67.8	2	9	90	0.00	29.942 
13:25	84.7	84.7	87.6	56	67.2	1	3	90	0.00	29.942 
13:30	84.5	84.5	87.5	57	67.6	1	3	90	0.00	29.942 
13:35	85.3	85.3	88.0	54	66.7	2	5	68	0.00	29.942 
13:40	85.9	85.9	88.0	51	65.6	1	3	112	0.00	29.942 
13:45	86.7	86.7	89.9	53	67.5	1	5	112	0.00	29.939 
13:50	87.4	87.4	89.7	49	65.9	1	5	90	0.00	29.939 
13:55	87.8	87.8	90.7	50	66.8	1	5	90	0.00	29.939 
14:00	87.8	87.8	90.0	48	65.6	2	4	112	0.00	29.936 
14:05	87.4	87.4	89.4	48	65.3	1	3	68	0.00	29.936 
14:10	87.4	87.4	89.4	48	65.3	1	4	68	0.00	29.936 
14:15	87.6	87.6	89.7	48	65.4	1	4	112	0.00	29.937 
14:20	87.6	87.6	90.4	50	66.6	1	3	112	0.00	29.937 
14:25	87.0	87.0	88.8	48	64.9	1	5	112	0.00	29.937 
14:30	86.1	86.1	87.8	49	64.7	1	4	90	0.00	29.938 
14:35	86.1	86.1	88.3	51	65.8	1	5	90	0.00	29.938 
14:40	87.0	87.0	89.4	50	66.1	2	4	90	0.00	29.938 
14:45	88.0	88.0	90.3	48	65.8	1	4	90	0.00	29.928 
14:50	88.2	88.2	90.3	47	65.4	1	4	90	0.00	29.928 
14:55	88.2	88.2	90.0	46	64.8	0	2	90	0.00	29.928 
15:00	87.8	87.8	89.7	47	65.0	1	5	112	0.00	29.927 
15:05	87.4	87.4	89.7	49	65.9	1	3	90	0.00	29.927 
15:10	87.8	87.8	90.4	49	66.2	1	5	112	0.00	29.927 
15:15	88.2	88.2	90.0	46	64.8	1	3	90	0.00	29.925 
15:20	88.6	88.6	90.6	46	65.1	2	6	90	0.00	29.925 
15:25	88.8	88.8	90.9	46	65.3	1	4	90	0.00	29.925 
15:30	89.5	89.5	92.1	46	65.9	1	4	112	0.00	29.922 
15:35	89.3	89.3	91.4	45	65.1	2	6	90	0.00	29.922 
15:40	89.3	89.3	91.4	45	65.1	2	4	112	0.00	29.922 
15:45	89.7	89.7	92.0	45	65.5	1	4	112	0.00	29.916 
15:50	89.7	89.7	91.6	44	64.8	1	3	112	0.00	29.916 
15:55	89.5	89.5	91.7	45	65.3	1	4	112	0.00	29.916 
16:00	89.3	89.3	91.7	46	65.8	3	6	112	0.00	29.910 
16:05	88.8	88.8	90.6	45	64.7	3	6	112	0.00	29.910 
16:10	88.6	88.6	90.6	46	65.1	1	3	112	0.00	29.910 
16:15	88.8	88.8	90.2	44	64.0	1	4	112	0.00	29.914 
16:20	89.0	89.0	90.9	45	64.9	0	2	90	0.00	29.914 
16:25	88.6	88.6	90.6	46	65.1	1	3	112	0.00	29.914 
16:30	88.0	88.0	89.7	46	64.6	2	5	112	0.00	29.912 
16:35	87.4	87.4	89.1	47	64.7	2	4	90	0.00	29.912 
16:40	87.0	87.0	88.8	48	64.9	2	6	90	0.00	29.912 
16:45	87.0	87.0	89.4	50	66.1	0	3	90	0.00	29.916 
16:50	86.7	86.7	88.3	48	64.6	2	4	90	0.00	29.916 
16:55	86.5	86.5	88.1	48	64.4	1	4	90	0.00	29.916 
17:00	86.3	86.3	87.5	47	63.7	2	4	90	0.00	29.919 
17:05	86.1	86.1	88.0	50	65.3	0	2	90	0.00	29.919 
17:10	86.1	86.1	87.8	49	64.7	0	2	90	0.00	29.919 
17:15	85.9	85.9	87.2	48	63.9	1	4	90	0.00	29.919 
17:20	85.7	85.7	87.2	49	64.3	2	4	90	0.00	29.919 
17:25	85.7	85.7	86.9	48	63.7	1	5	90	0.00	29.919 
17:30	85.7	85.7	86.9	48	63.7	3	5	90	0.00	29.912 
17:35	85.9	85.9	87.7	50	65.1	1	3	90	0.00	29.912 
17:40	86.1	86.1	88.0	50	65.3	1	3	90	0.00	29.912 
17:45	86.1	86.1	87.8	49	64.7	2	5	90	0.00	29.910 
17:50	85.9	85.9	87.7	50	65.1	2	5	112	0.00	29.910 
17:55	85.7	85.7	87.2	49	64.3	2	6	112	0.00	29.910 
18:00	85.7	85.7	87.4	50	64.9	2	5	68	0.00	29.908 
18:05	85.7	85.7	87.4	50	64.9	2	4	68	0.00	29.908 
18:10	85.7	85.7	87.2	49	64.3	2	6	90	0.00	29.908 
18:15	85.5	85.5	87.2	50	64.7	2	5	90	0.00	29.906 
18:20	85.5	85.5	86.9	49	64.1	1	3	90	0.00	29.906 
18:25	85.7	85.7	87.2	49	64.3	0	2	90	0.00	29.906 
18:30	85.9	85.9	87.5	49	64.5	1	3	90	0.00	29.898 
18:35	85.9	85.9	87.2	48	63.9	1	3	90	0.00	29.898 
18:40	85.9	85.9	87.2	48	63.9	1	4	90	0.00	29.898 
18:45	85.7	85.7	87.2	49	64.3	2	4	112	0.00	29.896 
18:50	85.7	85.7	87.2	49	64.3	1	3	112	0.00	29.896 
18:55	85.7	85.7	87.4	50	64.9	0	3	112	0.00	29.896 
19:00	85.5	85.5	86.9	49	64.1	1	4	112	0.00	29.896 
19:05	85.5	85.5	87.2	50	64.7	0	3	112	0.00	29.896 
19:10	85.5	85.5	86.9	49	64.1	0	2	112	0.00	29.896 
19:15	85.5	85.5	86.9	49	64.1	1	3	112	0.00	29.896 
19:20	85.3	85.3	86.9	50	64.5	1	3	112	0.00	29.896 
19:25	85.3	85.3	86.9	50	64.5	0	2	112	0.00	29.896 
19:30	85.3	85.3	86.9	50	64.5	0	2	112	0.00	29.890 
19:35	85.1	85.1	86.6	50	64.3	1	5	112	0.00	29.890 
19:40	84.9	84.9	86.6	51	64.7	0	2	68	0.00	29.890 
19:45	84.7	84.7	86.3	51	64.5	1	4	68	0.00	29.892 
19:50	84.5	84.5	86.3	52	64.9	0	4	90	0.00	29.892 
19:55	84.3	84.3	86.0	52	64.7	1	4	90	0.00	29.892 
20:00	84.1	84.1	85.7	52	64.5	0	1	90	0.00	29.891 
20:05	84.0	84.0	85.8	53	65.0	0	2	90	0.00	29.891 
20:10	83.8	83.8	85.5	53	64.8	0	1	90	0.00	29.891 
20:15	83.6	83.6	85.5	54	65.2	0	2	90	0.00	29.886 
20:20	83.4	83.4	85.2	54	65.0	0	3	90	0.00	29.886 
20:25	83.4	83.4	85.4	55	65.5	0	3	90	0.00	29.886 
20:30	83.2	83.2	85.3	56	65.8	0	0	---	0.00	29.892 
20:35	83.0	83.0	85.3	57	66.2	0	0	---	0.00	29.892 
20:40	82.8	82.8	85.4	59	67.0	0	2	90	0.00	29.892 
20:45	82.4	82.4	84.8	59	66.6	0	0	---	0.00	29.892 
20:50	82.2	82.2	84.7	60	66.9	0	0	---	0.00	29.892 
20:55	81.8	81.8	84.3	61	67.0	0	1	90	0.00	29.892 
21:00	81.6	81.6	84.2	62	67.3	0	1	90	0.00	29.888 
21:05	81.2	81.2	83.6	62	66.9	0	0	---	0.00	29.888 
21:10	81.1	81.1	83.6	63	67.3	0	0	---	0.00	29.888 
21:15	80.7	80.7	83.2	64	67.4	0	0	---	0.00	29.882 
21:20	80.5	80.5	82.9	64	67.2	0	0	---	0.00	29.882 
21:25	80.1	80.1	82.5	65	67.2	0	0	---	0.00	29.882 
21:30	79.9	79.9	82.2	65	67.1	0	0	---	0.00	29.883 
21:35	79.8	79.8	82.2	66	67.4	0	0	---	0.00	29.883 
21:40	79.6	79.6	82.0	67	67.7	0	0	---	0.00	29.883 
21:45	79.2	79.2	81.5	68	67.7	0	3	90	0.00	29.886 
21:50	79.2	79.2	81.5	68	67.7	0	0	---	0.00	29.886 
21:55	78.8	78.8	81.1	69	67.7	0	0	---	0.00	29.886 
22:00	78.5	78.5	80.7	69	67.5	0	0	---	0.00	29.887 
22:05	78.3	78.3	80.4	70	67.7	0	0	---	0.00	29.887 
22:10	77.9	77.9	79.9	71	67.7	0	0	---	0.00	29.887 
22:15	77.7	77.7	79.7	72	67.9	0	0	---	0.00	29.882 
22:20	77.6	77.6	79.5	73	68.2	0	0	---	0.00	29.882 
22:25	77.2	77.2	79.0	73	67.9	0	0	---	0.00	29.882 
22:30	77.0	77.0	78.7	74	68.1	0	0	---	0.00	29.880 
22:35	76.8	76.8	78.4	74	67.9	0	0	---	0.00	29.880 
22:40	76.7	76.7	78.3	75	68.2	0	0	---	0.00	29.880 
22:45	76.5	76.5	78.0	76	68.4	0	0	---	0.00	29.878 
22:50	76.3	76.3	77.7	76	68.2	0	0	---	0.00	29.878 
22:55	76.1	76.1	77.4	76	68.0	0	0	---	0.00	29.878 
23:00	76.0	76.0	77.2	77	68.3	0	0	---	0.00	29.890 
23:05	76.1	76.1	77.4	76	68.0	0	1	90	0.00	29.890 
23:10	76.1	76.1	77.4	76	68.0	0	1	90	0.00	29.890 
23:15	76.3	76.3	77.7	76	68.2	0	2	90	0.00	29.892 
23:20	76.3	76.3	77.7	76	68.2	1	3	90	0.00	29.892 
23:25	76.1	76.1	77.4	76	68.0	0	2	90	0.00	29.892 
23:30	76.1	76.1	77.4	77	68.3	0	1	90	0.00	29.889 
23:35	76.0	76.0	77.2	77	68.3	0	2	90	0.00	29.889 
23:40	75.8	75.8	76.9	78	68.4	0	1	90	0.00	29.889 
23:45	75.8	75.8	76.8	79	68.8	0	1	90	0.00	29.884 
23:50	75.6	75.6	76.5	79	68.6	0	1	90	0.00	29.884 
23:55	75.4	75.4	76.2	79	68.4	0	1	90	0.00	29.884 

CoCoRaHS
IN-AL-39
A2 Web Hosting
Creative Commons License
GoDaddy
search engine by freefind advanced

loaded 2018-11-12 19:22:07 • last modified 2010-11-18 10:43:29
Privacy PolicyDisclaimer
• wx.awcolley.com is powered by PmWiki v.2002016 •
• all content (unless otherwise noted) © 2018 A W Colley